sensor_id;sensor_type;location;lat;lon;timestamp;pressure;altitude;pressure_sealevel;temperature;humidity
77702;BME280;66868;42.708;23.404;2024-02-04T00:01:28;95583.97;;;1.74;87.72
77702;BME280;66868;42.708;23.404;2024-02-04T00:03:54;95585.47;;;1.83;87.17
77702;BME280;66868;42.708;23.404;2024-02-04T00:06:19;95587.91;;;1.86;87.02
77702;BME280;66868;42.708;23.404;2024-02-04T00:08:45;95573.09;;;1.76;86.86
77702;BME280;66868;42.708;23.404;2024-02-04T00:11:10;95585.38;;;1.87;86.83
77702;BME280;66868;42.708;23.404;2024-02-04T00:13:38;95589.47;;;1.93;86.63
77702;BME280;66868;42.708;23.404;2024-02-04T00:16:04;95595.31;;;1.90;87.13
77702;BME280;66868;42.708;23.404;2024-02-04T00:18:30;95597.06;;;1.85;87.89
77702;BME280;66868;42.708;23.404;2024-02-04T00:20:55;95592.88;;;1.87;88.18
77702;BME280;66868;42.708;23.404;2024-02-04T00:23:21;95596.94;;;1.94;88.52
77702;BME280;66868;42.708;23.404;2024-02-04T00:25:46;95575.41;;;1.87;88.38
77702;BME280;66868;42.708;23.404;2024-02-04T00:28:12;95594.81;;;2.17;87.89
77702;BME280;66868;42.708;23.404;2024-02-04T00:30:38;95595.59;;;2.21;87.76
77702;BME280;66868;42.708;23.404;2024-02-04T00:33:04;95587.78;;;2.38;87.61
77702;BME280;66868;42.708;23.404;2024-02-04T00:35:30;95577.94;;;2.30;87.65
77702;BME280;66868;42.708;23.404;2024-02-04T00:37:55;95590.00;;;2.51;87.01
77702;BME280;66868;42.708;23.404;2024-02-04T00:40:21;95582.41;;;2.57;86.58
77702;BME280;66868;42.708;23.404;2024-02-04T00:42:46;95577.19;;;2.68;86.63
77702;BME280;66868;42.708;23.404;2024-02-04T00:45:12;95587.47;;;2.93;85.82
77702;BME280;66868;42.708;23.404;2024-02-04T00:47:37;95589.63;;;3.09;85.29
77702;BME280;66868;42.708;23.404;2024-02-04T00:50:03;95586.00;;;3.23;84.87
77702;BME280;66868;42.708;23.404;2024-02-04T00:52:29;95585.69;;;3.36;84.26
77702;BME280;66868;42.708;23.404;2024-02-04T00:54:54;95590.41;;;3.47;84.17
77702;BME280;66868;42.708;23.404;2024-02-04T00:57:20;95583.59;;;3.55;83.33
77702;BME280;66868;42.708;23.404;2024-02-04T00:59:45;95563.56;;;3.55;82.95
77702;BME280;66868;42.708;23.404;2024-02-04T01:02:11;95586.38;;;3.77;82.10
77702;BME280;66868;42.708;23.404;2024-02-04T01:04:36;95584.63;;;3.80;81.97
77702;BME280;66868;42.708;23.404;2024-02-04T01:07:02;95581.38;;;3.77;82.92
77702;BME280;66868;42.708;23.404;2024-02-04T01:09:30;95579.59;;;3.80;82.47
77702;BME280;66868;42.708;23.404;2024-02-04T01:11:55;95577.94;;;3.79;82.77
77702;BME280;66868;42.708;23.404;2024-02-04T01:14:21;95587.09;;;3.82;82.53
77702;BME280;66868;42.708;23.404;2024-02-04T01:16:46;95586.06;;;3.89;82.45
77702;BME280;66868;42.708;23.404;2024-02-04T01:19:12;95584.94;;;4.00;81.57
77702;BME280;66868;42.708;23.404;2024-02-04T01:21:37;95587.19;;;4.11;80.62
77702;BME280;66868;42.708;23.404;2024-02-04T01:24:03;95581.50;;;4.05;80.96
77702;BME280;66868;42.708;23.404;2024-02-04T01:26:28;95581.41;;;4.08;80.81
77702;BME280;66868;42.708;23.404;2024-02-04T01:28:54;95580.53;;;4.10;81.86
77702;BME280;66868;42.708;23.404;2024-02-04T01:31:19;95567.16;;;3.79;83.24
77702;BME280;66868;42.708;23.404;2024-02-04T01:33:45;95560.38;;;3.82;83.57
77702;BME280;66868;42.708;23.404;2024-02-04T01:36:10;95577.75;;;3.88;83.72
77702;BME280;66868;42.708;23.404;2024-02-04T01:38:36;95564.47;;;3.85;84.35
77702;BME280;66868;42.708;23.404;2024-02-04T01:41:01;95567.28;;;3.73;84.79
77702;BME280;66868;42.708;23.404;2024-02-04T01:43:27;95571.31;;;3.78;85.19
77702;BME280;66868;42.708;23.404;2024-02-04T01:45:52;95510.53;;;3.39;84.95
77702;BME280;66868;42.708;23.404;2024-02-04T01:48:21;95560.59;;;3.73;84.79
77702;BME280;66868;42.708;23.404;2024-02-04T01:50:48;95549.16;;;3.63;85.37
77702;BME280;66868;42.708;23.404;2024-02-04T01:53:17;95543.00;;;3.76;85.12
77702;BME280;66868;42.708;23.404;2024-02-04T01:55:45;95557.78;;;3.85;85.52
77702;BME280;66868;42.708;23.404;2024-02-04T01:58:12;95544.16;;;3.95;85.40
77702;BME280;66868;42.708;23.404;2024-02-04T02:00:38;95538.91;;;4.05;85.34
77702;BME280;66868;42.708;23.404;2024-02-04T02:03:05;95554.41;;;4.19;85.45
77702;BME280;66868;42.708;23.404;2024-02-04T02:05:32;95541.84;;;4.20;85.57
77702;BME280;66868;42.708;23.404;2024-02-04T02:07:57;95559.63;;;4.42;85.70
77702;BME280;66868;42.708;23.404;2024-02-04T02:10:23;95560.16;;;4.53;85.57
77702;BME280;66868;42.708;23.404;2024-02-04T02:12:59;95557.19;;;4.68;84.91
77702;BME280;66868;42.708;23.404;2024-02-04T02:15:30;95532.78;;;4.75;84.87
77702;BME280;66868;42.708;23.404;2024-02-04T02:18:11;95537.38;;;4.88;84.26
77702;BME280;66868;42.708;23.404;2024-02-04T02:23:36;95531.94;;;5.30;84.27
77702;BME280;66868;42.708;23.404;2024-02-04T02:26:04;95541.09;;;5.57;83.46
77702;BME280;66868;42.708;23.404;2024-02-04T02:28:31;95544.16;;;5.65;82.51
77702;BME280;66868;42.708;23.404;2024-02-04T02:30:57;95544.09;;;5.68;82.55
77702;BME280;66868;42.708;23.404;2024-02-04T02:33:23;95541.47;;;5.71;81.48
77702;BME280;66868;42.708;23.404;2024-02-04T02:35:53;95544.34;;;5.86;80.71
77702;BME280;66868;42.708;23.404;2024-02-04T02:41:32;95541.34;;;6.01;79.86
77702;BME280;66868;42.708;23.404;2024-02-04T02:43:59;95531.94;;;6.06;79.42
77702;BME280;66868;42.708;23.404;2024-02-04T02:46:25;95523.66;;;6.04;78.86
77702;BME280;66868;42.708;23.404;2024-02-04T02:48:52;95536.75;;;6.12;79.29
77702;BME280;66868;42.708;23.404;2024-02-04T02:51:17;95532.44;;;6.15;78.59
77702;BME280;66868;42.708;23.404;2024-02-04T02:53:43;95539.91;;;6.18;79.33
77702;BME280;66868;42.708;23.404;2024-02-04T02:56:08;95535.75;;;6.17;79.06
77702;BME280;66868;42.708;23.404;2024-02-04T02:58:34;95544.84;;;6.20;78.51
77702;BME280;66868;42.708;23.404;2024-02-04T03:00:59;95539.63;;;6.26;78.82
77702;BME280;66868;42.708;23.404;2024-02-04T03:03:25;95541.97;;;6.31;78.08
77702;BME280;66868;42.708;23.404;2024-02-04T03:05:50;95540.16;;;6.34;78.37
77702;BME280;66868;42.708;23.404;2024-02-04T03:08:16;95547.03;;;6.29;78.38
77702;BME280;66868;42.708;23.404;2024-02-04T03:10:42;95545.84;;;6.16;79.33
77702;BME280;66868;42.708;23.404;2024-02-04T03:13:08;95536.53;;;6.19;78.85
77702;BME280;66868;42.708;23.404;2024-02-04T03:15:33;95542.97;;;6.27;79.78
77702;BME280;66868;42.708;23.404;2024-02-04T03:17:59;95527.84;;;6.28;78.84
77702;BME280;66868;42.708;23.404;2024-02-04T03:20:24;95526.84;;;6.32;79.18
77702;BME280;66868;42.708;23.404;2024-02-04T03:22:50;95530.22;;;6.31;78.79
77702;BME280;66868;42.708;23.404;2024-02-04T03:25:15;95523.56;;;6.30;78.63
77702;BME280;66868;42.708;23.404;2024-02-04T03:27:42;95523.56;;;6.30;78.98
77702;BME280;66868;42.708;23.404;2024-02-04T03:30:07;95523.09;;;5.96;81.33
77702;BME280;66868;42.708;23.404;2024-02-04T03:32:33;95505.81;;;5.60;83.24
77702;BME280;66868;42.708;23.404;2024-02-04T03:35:02;95508.06;;;5.43;83.43
77702;BME280;66868;42.708;23.404;2024-02-04T03:37:28;95528.84;;;5.48;84.45
77702;BME280;66868;42.708;23.404;2024-02-04T03:39:54;95506.63;;;5.36;85.14
77702;BME280;66868;42.708;23.404;2024-02-04T03:42:19;95474.69;;;5.15;85.15
77702;BME280;66868;42.708;23.404;2024-02-04T03:44:46;95493.19;;;5.37;84.99
77702;BME280;66868;42.708;23.404;2024-02-04T03:47:12;95497.06;;;5.47;84.43
77702;BME280;66868;42.708;23.404;2024-02-04T03:49:37;95497.63;;;5.55;85.32
77702;BME280;66868;42.708;23.404;2024-02-04T03:52:03;95491.69;;;5.58;84.52
77702;BME280;66868;42.708;23.404;2024-02-04T03:54:29;95490.44;;;5.69;83.83
77702;BME280;66868;42.708;23.404;2024-02-04T03:56:54;95487.59;;;5.80;83.17
77702;BME280;66868;42.708;23.404;2024-02-04T03:59:20;95493.44;;;5.81;83.88
77702;BME280;66868;42.708;23.404;2024-02-04T04:01:49;95485.13;;;5.78;83.63
77702;BME280;66868;42.708;23.404;2024-02-04T04:04:19;95509.16;;;5.86;83.14
77702;BME280;66868;42.708;23.404;2024-02-04T04:06:45;95491.56;;;5.87;83.17
77702;BME280;66868;42.708;23.404;2024-02-04T04:09:11;95516.72;;;5.86;83.88
77702;BME280;66868;42.708;23.404;2024-02-04T04:11:36;95513.63;;;5.77;84.19
77702;BME280;66868;42.708;23.404;2024-02-04T04:14:02;95518.97;;;5.68;84.53
77702;BME280;66868;42.708;23.404;2024-02-04T04:16:28;95497.63;;;5.55;84.71
77702;BME280;66868;42.708;23.404;2024-02-04T04:18:54;95511.53;;;5.65;84.73
77702;BME280;66868;42.708;23.404;2024-02-04T04:21:20;95512.38;;;5.64;84.15
77702;BME280;66868;42.708;23.404;2024-02-04T04:23:45;95509.94;;;5.63;84.45
77702;BME280;66868;42.708;23.404;2024-02-04T04:26:11;95503.94;;;5.67;84.43
77702;BME280;66868;42.708;23.404;2024-02-04T04:28:37;95494.06;;;5.62;84.83
77702;BME280;66868;42.708;23.404;2024-02-04T04:31:02;95509.13;;;5.62;84.23
77702;BME280;66868;42.708;23.404;2024-02-04T04:33:28;95514.81;;;5.67;85.22
77702;BME280;66868;42.708;23.404;2024-02-04T04:35:54;95516.63;;;5.64;84.54
77702;BME280;66868;42.708;23.404;2024-02-04T04:38:19;95521.09;;;5.79;84.36
77702;BME280;66868;42.708;23.404;2024-02-04T04:40:45;95510.03;;;5.85;83.81
77702;BME280;66868;42.708;23.404;2024-02-04T04:43:10;95523.25;;;5.91;83.84
77702;BME280;66868;42.708;23.404;2024-02-04T04:45:36;95501.75;;;5.83;83.54
77702;BME280;66868;42.708;23.404;2024-02-04T04:48:01;95514.59;;;6.00;83.46
77702;BME280;66868;42.708;23.404;2024-02-04T04:50:27;95519.38;;;6.06;82.75
77702;BME280;66868;42.708;23.404;2024-02-04T04:52:52;95513.94;;;6.18;82.89
77702;BME280;66868;42.708;23.404;2024-02-04T04:55:19;95492.22;;;6.15;82.70
77702;BME280;66868;42.708;23.404;2024-02-04T04:57:44;95519.22;;;6.34;81.96
77702;BME280;66868;42.708;23.404;2024-02-04T05:00:10;95516.47;;;6.41;81.42
77702;BME280;66868;42.708;23.404;2024-02-04T05:02:39;95521.50;;;6.41;81.43
77702;BME280;66868;42.708;23.404;2024-02-04T05:05:05;95511.09;;;6.50;81.50
77702;BME280;66868;42.708;23.404;2024-02-04T05:07:31;95512.84;;;6.48;80.86
77702;BME280;66868;42.708;23.404;2024-02-04T05:09:56;95501.56;;;6.58;81.02
77702;BME280;66868;42.708;23.404;2024-02-04T05:12:22;95514.28;;;6.55;80.00
77702;BME280;66868;42.708;23.404;2024-02-04T05:14:47;95505.13;;;6.53;80.73
77702;BME280;66868;42.708;23.404;2024-02-04T05:17:13;95512.13;;;6.45;80.72
77702;BME280;66868;42.708;23.404;2024-02-04T05:19:41;95484.53;;;6.20;81.00
77702;BME280;66868;42.708;23.404;2024-02-04T05:22:07;95510.66;;;6.16;82.09
77702;BME280;66868;42.708;23.404;2024-02-04T05:24:33;95514.06;;;6.15;81.36
77702;BME280;66868;42.708;23.404;2024-02-04T05:26:58;95513.91;;;6.19;82.22
77702;BME280;66868;42.708;23.404;2024-02-04T05:29:24;95501.50;;;6.15;81.99
77702;BME280;66868;42.708;23.404;2024-02-04T05:31:49;95515.03;;;6.34;81.62
77702;BME280;66868;42.708;23.404;2024-02-04T05:34:15;95522.69;;;6.54;82.01
77702;BME280;66868;42.708;23.404;2024-02-04T05:36:40;95521.78;;;6.79;80.62
77702;BME280;66868;42.708;23.404;2024-02-04T05:39:10;95517.59;;;7.01;79.63
77702;BME280;66868;42.708;23.404;2024-02-04T05:41:37;95513.50;;;7.20;79.13
77702;BME280;66868;42.708;23.404;2024-02-04T05:44:03;95506.56;;;7.25;79.48
77702;BME280;66868;42.708;23.404;2024-02-04T05:46:28;95510.59;;;7.29;79.35
77702;BME280;66868;42.708;23.404;2024-02-04T05:48:54;95519.03;;;7.28;78.27
77702;BME280;66868;42.708;23.404;2024-02-04T05:51:19;95513.03;;;7.31;78.27
77702;BME280;66868;42.708;23.404;2024-02-04T05:53:45;95462.22;;;7.01;78.30
77702;BME280;66868;42.708;23.404;2024-02-04T05:56:11;95494.50;;;7.33;77.38
77702;BME280;66868;42.708;23.404;2024-02-04T05:58:36;95523.56;;;7.40;77.35
77702;BME280;66868;42.708;23.404;2024-02-04T06:01:03;95533.13;;;7.32;77.85
77702;BME280;66868;42.708;23.404;2024-02-04T06:03:28;95512.72;;;7.18;77.36
77702;BME280;66868;42.708;23.404;2024-02-04T06:05:54;95524.38;;;7.21;77.07
77702;BME280;66868;42.708;23.404;2024-02-04T06:08:19;95550.31;;;7.44;76.62
77702;BME280;66868;42.708;23.404;2024-02-04T06:10:45;95521.41;;;7.31;76.51
77702;BME280;66868;42.708;23.404;2024-02-04T06:13:10;95539.13;;;7.30;77.25
77702;BME280;66868;42.708;23.404;2024-02-04T06:15:36;95550.75;;;7.32;76.87
77702;BME280;66868;42.708;23.404;2024-02-04T06:18:01;95546.84;;;7.25;77.01
77702;BME280;66868;42.708;23.404;2024-02-04T06:20:27;95561.97;;;7.25;77.31
77702;BME280;66868;42.708;23.404;2024-02-04T06:22:52;95563.66;;;7.25;76.92
77702;BME280;66868;42.708;23.404;2024-02-04T06:25:18;95575.47;;;7.23;77.09
77702;BME280;66868;42.708;23.404;2024-02-04T06:27:43;95574.47;;;7.05;76.97
77702;BME280;66868;42.708;23.404;2024-02-04T06:30:09;95589.56;;;7.05;77.32
77702;BME280;66868;42.708;23.404;2024-02-04T06:32:34;95581.41;;;6.98;77.65
77702;BME280;66868;42.708;23.404;2024-02-04T06:35:00;95586.41;;;7.00;78.29
77702;BME280;66868;42.708;23.404;2024-02-04T06:37:25;95575.94;;;6.89;78.26
77702;BME280;66868;42.708;23.404;2024-02-04T06:39:52;95586.88;;;6.88;78.92
77702;BME280;66868;42.708;23.404;2024-02-04T06:42:18;95583.03;;;7.01;78.31
77702;BME280;66868;42.708;23.404;2024-02-04T06:44:44;95577.16;;;7.00;78.14
77702;BME280;66868;42.708;23.404;2024-02-04T06:47:10;95589.28;;;7.13;77.63
77702;BME280;66868;42.708;23.404;2024-02-04T06:49:39;95570.88;;;7.12;77.75
77702;BME280;66868;42.708;23.404;2024-02-04T06:52:05;95564.38;;;7.06;77.36
77702;BME280;66868;42.708;23.404;2024-02-04T06:54:30;95568.91;;;7.19;77.63
77702;BME280;66868;42.708;23.404;2024-02-04T06:56:56;95571.31;;;7.22;77.70
77702;BME280;66868;42.708;23.404;2024-02-04T06:59:21;95573.66;;;7.26;77.40
77702;BME280;66868;42.708;23.404;2024-02-04T07:01:47;95577.25;;;7.42;76.91
77702;BME280;66868;42.708;23.404;2024-02-04T07:04:12;95582.50;;;7.58;76.13
77702;BME280;66868;42.708;23.404;2024-02-04T07:06:38;95551.38;;;7.59;76.05
77702;BME280;66868;42.708;23.404;2024-02-04T07:09:04;95578.16;;;7.82;75.57
77702;BME280;66868;42.708;23.404;2024-02-04T07:11:29;95569.25;;;7.95;75.38
77702;BME280;66868;42.708;23.404;2024-02-04T07:13:55;95574.66;;;8.06;74.88
77702;BME280;66868;42.708;23.404;2024-02-04T07:16:25;95561.56;;;8.18;73.87
77702;BME280;66868;42.708;23.404;2024-02-04T07:18:51;95546.53;;;8.15;73.83
77702;BME280;66868;42.708;23.404;2024-02-04T07:21:16;95576.13;;;8.32;73.92
77702;BME280;66868;42.708;23.404;2024-02-04T07:23:42;95593.94;;;8.48;73.41
77702;BME280;66868;42.708;23.404;2024-02-04T07:26:08;95579.91;;;8.61;73.50
77702;BME280;66868;42.708;23.404;2024-02-04T07:28:34;95593.03;;;8.69;73.00
77702;BME280;66868;42.708;23.404;2024-02-04T07:30:59;95585.06;;;8.78;72.82
77702;BME280;66868;42.708;23.404;2024-02-04T07:33:25;95582.19;;;8.85;72.39
77702;BME280;66868;42.708;23.404;2024-02-04T07:35:50;95597.16;;;8.90;71.91
77702;BME280;66868;42.708;23.404;2024-02-04T07:38:16;95584.09;;;8.99;71.85
77702;BME280;66868;42.708;23.404;2024-02-04T07:40:42;95579.81;;;9.01;71.04
77702;BME280;66868;42.708;23.404;2024-02-04T07:43:08;95585.53;;;9.05;71.08
77702;BME280;66868;42.708;23.404;2024-02-04T07:45:34;95558.72;;;9.02;70.78
77702;BME280;66868;42.708;23.404;2024-02-04T07:47:59;95600.81;;;9.20;71.22
77702;BME280;66868;42.708;23.404;2024-02-04T07:50:25;95603.34;;;9.20;70.47
77702;BME280;66868;42.708;23.404;2024-02-04T07:52:51;95600.69;;;9.23;70.84
77702;BME280;66868;42.708;23.404;2024-02-04T07:55:17;95596.97;;;9.30;70.52
77702;BME280;66868;42.708;23.404;2024-02-04T07:57:42;95598.91;;;9.25;70.61
77702;BME280;66868;42.708;23.404;2024-02-04T08:00:08;95612.03;;;9.34;69.92
77702;BME280;66868;42.708;23.404;2024-02-04T08:02:36;95583.00;;;9.23;70.24
77702;BME280;66868;42.708;23.404;2024-02-04T08:05:03;95609.97;;;9.42;70.02
77702;BME280;66868;42.708;23.404;2024-02-04T08:07:29;95603.88;;;9.46;70.25
77702;BME280;66868;42.708;23.404;2024-02-04T08:09:54;95614.59;;;9.51;70.23
77702;BME280;66868;42.708;23.404;2024-02-04T08:12:20;95592.88;;;9.47;69.30
77702;BME280;66868;42.708;23.404;2024-02-04T08:14:45;95613.28;;;9.61;69.30
77702;BME280;66868;42.708;23.404;2024-02-04T08:17:11;95595.06;;;9.71;69.24
77702;BME280;66868;42.708;23.404;2024-02-04T08:19:36;95590.09;;;9.87;68.83
77702;BME280;66868;42.708;23.404;2024-02-04T08:22:02;95577.97;;;9.94;69.00
77702;BME280;66868;42.708;23.404;2024-02-04T08:24:27;95592.78;;;10.18;67.20
77702;BME280;66868;42.708;23.404;2024-02-04T08:26:55;95615.50;;;10.20;66.09
77702;BME280;66868;42.708;23.404;2024-02-04T08:29:20;95596.22;;;10.17;66.69
77702;BME280;66868;42.708;23.404;2024-02-04T08:31:46;95608.06;;;10.17;66.63
77702;BME280;66868;42.708;23.404;2024-02-04T08:34:11;95608.25;;;10.12;66.76
77702;BME280;66868;42.708;23.404;2024-02-04T08:36:37;95596.63;;;10.08;67.64
77702;BME280;66868;42.708;23.404;2024-02-04T08:39:02;95600.44;;;10.00;67.07
77702;BME280;66868;42.708;23.404;2024-02-04T08:41:28;95592.94;;;9.98;68.45
77702;BME280;66868;42.708;23.404;2024-02-04T08:43:53;95595.31;;;10.01;67.57
77702;BME280;66868;42.708;23.404;2024-02-04T08:46:19;95588.00;;;9.95;68.14
77702;BME280;66868;42.708;23.404;2024-02-04T08:48:44;95611.81;;;10.08;67.77
77702;BME280;66868;42.708;23.404;2024-02-04T08:51:11;95608.25;;;10.12;67.93
77702;BME280;66868;42.708;23.404;2024-02-04T08:53:37;95601.56;;;10.11;68.18
77702;BME280;66868;42.708;23.404;2024-02-04T08:56:03;95601.69;;;10.08;68.06
77702;BME280;66868;42.708;23.404;2024-02-04T08:58:29;95593.09;;;10.12;68.17
77702;BME280;66868;42.708;23.404;2024-02-04T09:00:54;95602.59;;;10.07;68.13
77702;BME280;66868;42.708;23.404;2024-02-04T09:03:20;95583.41;;;10.03;67.90
77702;BME280;66868;42.708;23.404;2024-02-04T09:05:45;95588.91;;;10.11;67.78
77702;BME280;66868;42.708;23.404;2024-02-04T09:08:11;95585.38;;;10.15;68.82
77702;BME280;66868;42.708;23.404;2024-02-04T09:10:36;95582.84;;;10.15;69.16
77702;BME280;66868;42.708;23.404;2024-02-04T09:13:02;95580.75;;;10.24;68.14
77702;BME280;66868;42.708;23.404;2024-02-04T09:15:28;95587.16;;;10.31;67.77
77702;BME280;66868;42.708;23.404;2024-02-04T09:17:53;95592.03;;;10.34;67.61
77702;BME280;66868;42.708;23.404;2024-02-04T09:20:19;95543.81;;;9.85;67.34
77702;BME280;66868;42.708;23.404;2024-02-04T09:22:44;95589.53;;;10.16;67.89
77702;BME280;66868;42.708;23.404;2024-02-04T09:25:10;95599.34;;;10.23;67.90
77702;BME280;66868;42.708;23.404;2024-02-04T09:27:35;95621.38;;;10.21;68.83
77702;BME280;66868;42.708;23.404;2024-02-04T09:30:02;95593.22;;;10.09;68.19
77702;BME280;66868;42.708;23.404;2024-02-04T09:32:27;95609.63;;;10.19;68.50
77702;BME280;66868;42.708;23.404;2024-02-04T09:34:53;95586.63;;;10.24;68.18
77702;BME280;66868;42.708;23.404;2024-02-04T09:37:18;95600.22;;;10.39;67.70
77702;BME280;66868;42.708;23.404;2024-02-04T09:39:44;95591.50;;;10.44;66.27
77702;BME280;66868;42.708;23.404;2024-02-04T09:42:10;95612.72;;;10.42;66.91
77702;BME280;66868;42.708;23.404;2024-02-04T09:44:42;95608.25;;;10.47;66.62
77702;BME280;66868;42.708;23.404;2024-02-04T09:47:08;95588.16;;;10.44;67.75
77702;BME280;66868;42.708;23.404;2024-02-04T09:49:36;95605.41;;;10.53;67.39
77702;BME280;66868;42.708;23.404;2024-02-04T09:52:07;95600.84;;;10.59;67.20
77702;BME280;66868;42.708;23.404;2024-02-04T09:54:35;95585.41;;;10.48;67.25
77702;BME280;66868;42.708;23.404;2024-02-04T09:57:02;95613.72;;;10.55;66.74
77702;BME280;66868;42.708;23.404;2024-02-04T09:59:28;95596.94;;;10.54;66.70
77702;BME280;66868;42.708;23.404;2024-02-04T10:01:55;95589.00;;;10.60;67.83
77702;BME280;66868;42.708;23.404;2024-02-04T10:04:20;95568.28;;;10.69;67.30
77702;BME280;66868;42.708;23.404;2024-02-04T10:06:46;95596.41;;;10.80;67.03
77702;BME280;66868;42.708;23.404;2024-02-04T10:09:12;95589.22;;;10.88;66.49
77702;BME280;66868;42.708;23.404;2024-02-04T10:11:38;95596.81;;;10.88;67.25
77702;BME280;66868;42.708;23.404;2024-02-04T10:14:03;95604.25;;;10.91;66.82
77702;BME280;66868;42.708;23.404;2024-02-04T10:16:29;95593.09;;;11.11;66.42
77702;BME280;66868;42.708;23.404;2024-02-04T10:18:55;95585.63;;;11.24;65.74
77702;BME280;66868;42.708;23.404;2024-02-04T10:21:22;95621.16;;;11.55;65.57
77702;BME280;66868;42.708;23.404;2024-02-04T10:23:50;95592.19;;;11.59;64.80
77702;BME280;66868;42.708;23.404;2024-02-04T10:26:16;95606.72;;;11.71;64.43
77702;BME280;66868;42.708;23.404;2024-02-04T10:28:44;95594.44;;;11.79;64.38
77702;BME280;66868;42.708;23.404;2024-02-04T10:31:12;95589.78;;;11.87;63.39
77702;BME280;66868;42.708;23.404;2024-02-04T10:33:37;95597.03;;;11.93;63.02
77702;BME280;66868;42.708;23.404;2024-02-04T10:36:03;95598.09;;;11.89;63.27
77702;BME280;66868;42.708;23.404;2024-02-04T10:38:32;95588.09;;;11.72;64.03
77702;BME280;66868;42.708;23.404;2024-02-04T10:40:59;95605.31;;;11.66;64.13
77702;BME280;66868;42.708;23.404;2024-02-04T10:43:30;95580.41;;;11.58;64.00
77702;BME280;66868;42.708;23.404;2024-02-04T10:45:56;95588.19;;;11.55;64.54
77702;BME280;66868;42.708;23.404;2024-02-04T10:48:26;95619.50;;;11.54;64.17
77702;BME280;66868;42.708;23.404;2024-02-04T10:50:55;95587.25;;;11.56;64.80
77702;BME280;66868;42.708;23.404;2024-02-04T10:53:22;95580.22;;;11.61;64.41
77702;BME280;66868;42.708;23.404;2024-02-04T10:55:49;95577.59;;;11.63;64.18
77702;BME280;66868;42.708;23.404;2024-02-04T10:58:16;95591.50;;;11.71;63.94
77702;BME280;66868;42.708;23.404;2024-02-04T11:00:43;95599.69;;;11.76;63.58
77702;BME280;66868;42.708;23.404;2024-02-04T11:03:11;95557.13;;;11.66;64.04
77702;BME280;66868;42.708;23.404;2024-02-04T11:05:36;95585.38;;;11.75;63.37
77702;BME280;66868;42.708;23.404;2024-02-04T11:08:04;95571.09;;;11.74;63.50
77702;BME280;66868;42.708;23.404;2024-02-04T11:10:31;95588.31;;;11.68;63.44
77702;BME280;66868;42.708;23.404;2024-02-04T11:13:01;95597.06;;;11.62;63.67
77702;BME280;66868;42.708;23.404;2024-02-04T11:15:30;95544.78;;;11.30;63.42
77702;BME280;66868;42.708;23.404;2024-02-04T11:25:55;95573.28;;;11.65;63.70
77702;BME280;66868;42.708;23.404;2024-02-04T11:28:22;95571.38;;;11.68;63.47
77702;BME280;66868;42.708;23.404;2024-02-04T11:30:50;95530.63;;;11.71;63.88
77702;BME280;66868;42.708;23.404;2024-02-04T11:33:21;95530.63;;;11.71;63.00
77702;BME280;66868;42.708;23.404;2024-02-04T11:36:02;95546.72;;;11.70;63.02
77702;BME280;66868;42.708;23.404;2024-02-04T11:38:35;95536.66;;;11.84;63.67
77702;BME280;66868;42.708;23.404;2024-02-04T11:41:02;95524.03;;;12.13;62.41
77702;BME280;66868;42.708;23.404;2024-02-04T11:43:28;95519.31;;;12.21;61.32
77702;BME280;66868;42.708;23.404;2024-02-04T11:45:54;95548.56;;;12.42;61.06
77702;BME280;66868;42.708;23.404;2024-02-04T11:48:19;95531.88;;;12.38;60.59
77702;BME280;66868;42.708;23.404;2024-02-04T11:50:52;95523.16;;;12.42;60.91
77702;BME280;66868;42.708;23.404;2024-02-04T11:53:18;95505.75;;;12.36;59.85
77702;BME280;66868;42.708;23.404;2024-02-04T11:55:45;95537.56;;;12.42;60.26
77702;BME280;66868;42.708;23.404;2024-02-04T11:58:11;95532.13;;;12.48;59.68
77702;BME280;66868;42.708;23.404;2024-02-04T12:00:37;95534.22;;;12.41;59.38
77702;BME280;66868;42.708;23.404;2024-02-04T12:03:07;95511.28;;;12.57;59.24
77702;BME280;66868;42.708;23.404;2024-02-04T12:05:37;95503.19;;;12.64;58.75
77702;BME280;66868;42.708;23.404;2024-02-04T12:08:05;95503.66;;;12.71;59.63
77702;BME280;66868;42.708;23.404;2024-02-04T12:10:32;95510.03;;;12.91;58.22
77702;BME280;66868;42.708;23.404;2024-02-04T12:13:05;95517.81;;;13.16;58.22
77702;BME280;66868;42.708;23.404;2024-02-04T12:15:34;95502.72;;;13.27;57.42
77702;BME280;66868;42.708;23.404;2024-02-04T12:18:06;95507.94;;;13.38;57.73
77702;BME280;66868;42.708;23.404;2024-02-04T12:20:32;95501.78;;;13.28;56.09
77702;BME280;66868;42.708;23.404;2024-02-04T12:22:58;95522.00;;;13.17;56.67
77702;BME280;66868;42.708;23.404;2024-02-04T12:25:23;95460.22;;;12.88;56.96
77702;BME280;66868;42.708;23.404;2024-02-04T12:27:52;95530.44;;;13.03;56.81
77702;BME280;66868;42.708;23.404;2024-02-04T12:30:17;95497.84;;;12.96;56.93
77702;BME280;66868;42.708;23.404;2024-02-04T12:32:43;95507.88;;;12.84;57.34
77702;BME280;66868;42.708;23.404;2024-02-04T12:35:13;95486.81;;;12.82;57.47
77702;BME280;66868;42.708;23.404;2024-02-04T12:37:50;95504.69;;;12.81;57.05
77702;BME280;66868;42.708;23.404;2024-02-04T12:40:24;95475.78;;;12.69;57.70
77702;BME280;66868;42.708;23.404;2024-02-04T12:43:10;95483.63;;;12.93;57.55
77702;BME280;66868;42.708;23.404;2024-02-04T12:45:36;95484.63;;;12.91;56.96
77702;BME280;66868;42.708;23.404;2024-02-04T12:48:02;95476.88;;;13.06;56.25
77702;BME280;66868;42.708;23.404;2024-02-04T12:50:28;95489.84;;;13.16;56.06
77702;BME280;66868;42.708;23.404;2024-02-04T12:53:08;95483.38;;;13.24;56.11
77702;BME280;66868;42.708;23.404;2024-02-04T12:55:37;95487.50;;;13.40;55.77
77702;BME280;66868;42.708;23.404;2024-02-04T12:58:07;95476.50;;;13.39;56.01
77702;BME280;66868;42.708;23.404;2024-02-04T13:00:36;95494.03;;;13.56;55.52
77702;BME280;66868;42.708;23.404;2024-02-04T13:03:06;95495.91;;;13.80;55.04
77702;BME280;66868;42.708;23.404;2024-02-04T13:05:36;95489.84;;;14.07;53.96
77702;BME280;66868;42.708;23.404;2024-02-04T13:08:04;95495.75;;;14.21;53.42